createdAt,value
2018-02-02T00:00:41.765Z,99711.83
2018-02-02T00:01:47.077Z,99713.53
2018-02-02T00:02:52.053Z,99716.08
2018-02-02T00:03:56.265Z,99713.98
2018-02-02T00:05:00.463Z,99710.16
2018-02-02T00:06:05.453Z,99716.53
2018-02-02T00:07:10.171Z,99712.74
2018-02-02T00:08:15.575Z,99712.33
2018-02-02T00:09:19.810Z,99706.86
2018-02-02T00:10:24.015Z,99709.80
2018-02-02T00:11:28.212Z,99706.88
2018-02-02T00:12:32.415Z,99710.23
2018-02-02T00:13:37.311Z,99702.64
2018-02-02T00:14:41.555Z,99712.74
2018-02-02T00:15:45.819Z,99707.68
2018-02-02T00:16:50.790Z,99706.41
2018-02-02T00:17:55.009Z,99701.74
2018-02-02T00:18:59.213Z,99707.62
2018-02-02T00:20:04.024Z,99700.03
2018-02-02T00:21:09.124Z,99697.90
2018-02-02T00:22:13.640Z,99701.72
2018-02-02T00:23:17.865Z,99699.17
2018-02-02T00:24:22.057Z,99697.47
2018-02-02T00:25:26.226Z,99698.75
2018-02-02T00:26:30.447Z,99700.84
2018-02-02T00:27:35.428Z,99693.67
2018-02-02T00:28:39.627Z,99690.31
2018-02-02T00:29:43.804Z,99680.57
2018-02-02T00:30:48.005Z,99691.50
2018-02-02T00:31:52.268Z,99687.72
2018-02-02T00:32:56.461Z,99689.78
2018-02-02T00:34:00.707Z,99690.20
2018-02-02T00:35:05.699Z,99686.81
2018-02-02T00:36:09.959Z,99682.16
2018-02-02T00:37:14.992Z,99681.70
2018-02-02T00:38:19.536Z,99678.73
2018-02-02T00:39:23.839Z,99673.66
2018-02-02T00:40:28.116Z,99679.55
2018-02-02T00:41:32.313Z,99674.08
2018-02-02T00:42:36.569Z,99676.16
2018-02-02T00:43:40.748Z,99676.09
2018-02-02T00:44:45.163Z,99679.04
2018-02-02T00:45:49.685Z,99676.89
2018-02-02T00:46:54.711Z,99667.19
2018-02-02T00:47:58.939Z,99664.66
2018-02-02T00:49:03.895Z,99668.88
2018-02-02T00:50:08.096Z,99667.17
2018-02-02T00:51:18.315Z,99667.16
2018-02-02T00:52:23.623Z,99673.89
2018-02-02T00:53:29.063Z,99670.52
2018-02-02T00:54:33.234Z,99668.83
2018-02-02T00:55:37.441Z,99668.83
2018-02-02T00:56:41.679Z,99671.78
2018-02-02T00:57:46.693Z,99663.77
2018-02-02T00:58:51.043Z,99667.99
2018-02-02T00:59:55.468Z,99665.89
2018-02-02T01:00:59.726Z,99668.44
2018-02-02T01:02:04.015Z,99665.47
2018-02-02T01:03:09.021Z,99664.67
2018-02-02T01:04:13.267Z,99667.64
2018-02-02T01:05:18.207Z,99665.13
2018-02-02T01:06:22.424Z,99663.06
2018-02-02T01:07:26.695Z,99659.73
2018-02-02T01:08:30.885Z,99660.99
2018-02-02T01:09:35.117Z,99659.31
2018-02-02T01:10:39.301Z,99657.19
2018-02-02T01:11:43.498Z,99653.84
2018-02-02T01:12:47.986Z,99661.91
2018-02-02T01:13:52.214Z,99656.87
2018-02-02T01:14:56.903Z,99655.17
2018-02-02T01:16:01.847Z,99657.30
2018-02-02T01:17:06.057Z,99653.91
2018-02-02T01:18:10.255Z,99652.63
2018-02-02T01:19:15.484Z,99654.35
2018-02-02T01:20:20.621Z,99654.34
2018-02-02T01:21:25.631Z,99651.80
2018-02-02T01:22:30.690Z,99657.78
2018-02-02T01:23:34.905Z,99652.27
2018-02-02T01:24:39.103Z,99648.50
2018-02-02T01:25:43.399Z,99654.00
2018-02-02T01:26:48.887Z,99650.19
2018-02-02T01:27:54.056Z,99663.75
2018-02-02T01:28:58.303Z,99659.55
2018-02-02T01:30:03.280Z,99660.89
2018-02-02T01:31:07.513Z,99664.69
2018-02-02T01:32:11.701Z,99656.72
2018-02-02T01:33:16.047Z,99664.34
2018-02-02T01:34:21.086Z,99670.68
2018-02-02T01:35:26.199Z,99669.06
2018-02-02T01:36:30.435Z,99666.98
2018-02-02T01:37:35.375Z,99678.36
2018-02-02T01:38:39.585Z,99672.52
2018-02-02T01:39:43.791Z,99670.52
2018-02-02T01:40:48.077Z,99665.13
2018-02-02T01:41:52.525Z,99671.57
2018-02-02T01:42:56.741Z,99672.07
2018-02-02T01:44:00.943Z,99668.70
2018-02-02T01:45:05.152Z,99670.41
2018-02-02T01:46:09.380Z,99665.44
2018-02-02T01:47:13.685Z,99660.00
2018-02-02T01:48:22.090Z,99672.70
2018-02-02T01:49:26.625Z,99671.00
2018-02-02T01:50:30.808Z,99666.77
2018-02-02T01:51:34.996Z,99666.33
2018-02-02T01:52:39.186Z,99669.30
2018-02-02T01:53:43.495Z,99667.20
2018-02-02T01:54:47.945Z,99665.06
2018-02-02T01:55:52.253Z,99663.86
2018-02-02T01:56:57.211Z,99663.42
2018-02-02T01:58:01.392Z,99667.23
2018-02-02T01:59:05.560Z,99669.36
2018-02-02T02:00:09.805Z,99662.17
2018-02-02T02:01:14.012Z,99670.63
2018-02-02T02:02:19.090Z,99664.31
2018-02-02T02:03:23.510Z,99662.23
2018-02-02T02:04:27.882Z,99659.27
2018-02-02T02:05:32.074Z,99667.29
2018-02-02T02:06:36.272Z,99661.38
2018-02-02T02:07:40.474Z,99666.42
2018-02-02T02:08:44.836Z,99667.68
2018-02-02T02:09:49.248Z,99669.38
2018-02-02T02:10:55.134Z,99671.91
2018-02-02T02:11:59.367Z,99667.69
2018-02-02T02:13:03.563Z,99663.06
2018-02-02T02:14:08.087Z,99669.81
2018-02-02T02:15:12.264Z,99666.02
2018-02-02T02:16:18.325Z,99669.37
2018-02-02T02:17:23.078Z,99668.50
2018-02-02T02:18:27.287Z,99670.63
2018-02-02T02:19:31.903Z,99665.98
2018-02-02T02:20:36.127Z,99658.84
2018-02-02T02:21:40.318Z,99657.59
2018-02-02T02:22:44.831Z,99656.76
2018-02-02T02:23:49.129Z,99657.19
2018-02-02T02:24:53.673Z,99657.20
2018-02-02T02:25:57.915Z,99647.08
2018-02-02T02:27:02.120Z,99656.77
2018-02-02T02:28:06.306Z,99649.23
2018-02-02T02:29:10.499Z,99648.38
2018-02-02T02:30:14.758Z,99645.89
2018-02-02T02:31:19.095Z,99642.49
2018-02-02T02:32:24.140Z,99649.69
2018-02-02T02:33:28.337Z,99647.17
2018-02-02T02:34:32.512Z,99650.95
2018-02-02T02:35:36.766Z,99653.48
2018-02-02T02:36:41.767Z,99661.01
2018-02-02T02:37:46.342Z,99656.38
2018-02-02T02:38:50.710Z,99658.47
2018-02-02T02:39:55.077Z,99655.12
2018-02-02T02:40:59.295Z,99655.58
2018-02-02T02:42:03.472Z,99650.13
2018-02-02T02:43:08.445Z,99652.67
2018-02-02T02:44:12.643Z,99651.42
2018-02-02T02:45:17.216Z,99648.89
2018-02-02T02:46:21.525Z,99651.41
2018-02-02T02:47:26.648Z,99651.80
2018-02-02T02:48:30.874Z,99648.82
2018-02-02T02:49:35.864Z,99647.12
2018-02-02T02:50:40.059Z,99645.91
2018-02-02T02:51:44.788Z,99652.60
2018-02-02T02:52:49.368Z,99645.02
2018-02-02T02:53:54.488Z,99645.40
2018-02-02T02:54:59.464Z,99643.30
2018-02-02T02:56:03.651Z,99639.51
2018-02-02T02:57:07.818Z,99647.47
2018-02-02T02:58:13.501Z,99647.47
2018-02-02T02:59:19.274Z,99652.52
2018-02-02T03:00:23.577Z,99650.37
2018-02-02T03:01:27.810Z,99644.48
2018-02-02T03:02:32.015Z,99645.30
2018-02-02T03:03:36.219Z,99649.91
2018-02-02T03:04:40.420Z,99644.03
2018-02-02T03:05:44.755Z,99642.33
2018-02-02T03:06:49.085Z,99641.89
2018-02-02T03:07:53.480Z,99639.36
2018-02-02T03:08:57.696Z,99645.23
2018-02-02T03:10:01.933Z,99642.68
2018-02-02T03:11:06.135Z,99636.80
2018-02-02T03:12:10.375Z,99640.54
2018-02-02T03:13:15.452Z,99632.55
2018-02-02T03:14:19.989Z,99634.21
2018-02-02T03:15:24.319Z,99630.86
2018-02-02T03:16:29.400Z,99630.41
2018-02-02T03:17:33.571Z,99628.27
2018-02-02T03:18:38.531Z,99633.31
2018-02-02T03:19:42.717Z,99631.65
2018-02-02T03:20:47.830Z,99637.11
2018-02-02T03:21:53.457Z,99638.80
2018-02-02T03:22:57.710Z,99638.79
2018-02-02T03:24:02.666Z,99637.52
2018-02-02T03:25:07.098Z,99636.20
2018-02-02T03:26:11.502Z,99637.06
2018-02-02T03:27:15.872Z,99632.38
2018-02-02T03:28:20.094Z,99631.14
2018-02-02T03:29:25.032Z,99637.01
2018-02-02T03:30:29.204Z,99635.33
2018-02-02T03:31:33.455Z,99631.50
2018-02-02T03:32:38.538Z,99633.61
2018-02-02T03:33:43.277Z,99637.77
2018-02-02T03:34:48.376Z,99633.11
2018-02-02T03:35:52.559Z,99635.24
2018-02-02T03:36:56.783Z,99627.59
2018-02-02T03:38:00.950Z,99633.51
2018-02-02T03:39:06.105Z,99633.47
2018-02-02T03:40:10.517Z,99633.91
2018-02-02T03:41:15.244Z,99633.89
2018-02-02T03:42:19.508Z,99628.40
2018-02-02T03:43:23.717Z,99634.25
2018-02-02T03:44:27.904Z,99634.23
2018-02-02T03:45:32.156Z,99629.99
2018-02-02T03:46:37.537Z,99634.59
2018-02-02T03:47:41.941Z,99629.16
2018-02-02T03:48:46.276Z,99635.84
2018-02-02T03:49:50.487Z,99627.42
2018-02-02T03:50:54.681Z,99633.69
2018-02-02T03:51:59.194Z,99631.14
2018-02-02T03:53:03.407Z,99634.92
2018-02-02T03:54:07.827Z,99635.75
2018-02-02T03:55:12.403Z,99631.50
2018-02-02T03:56:17.456Z,99624.30
2018-02-02T03:57:21.747Z,99625.59
2018-02-02T03:58:26.694Z,99629.75
2018-02-02T03:59:30.913Z,99631.39
2018-02-02T04:00:35.184Z,99633.06
2018-02-02T04:01:40.395Z,99631.33
2018-02-02T04:02:44.864Z,99631.73
2018-02-02T04:03:49.077Z,99627.52
2018-02-02T04:04:53.289Z,99635.47
2018-02-02T04:05:58.232Z,99635.44
2018-02-02T04:07:02.446Z,99630.38
2018-02-02T04:08:07.400Z,99633.28
2018-02-02T04:09:11.944Z,99630.31
2018-02-02T04:10:16.410Z,99637.88
2018-02-02T04:11:20.587Z,99633.20
2018-02-02T04:12:24.755Z,99633.18
2018-02-02T04:13:28.949Z,99636.52
2018-02-02T04:14:33.138Z,99630.60
2018-02-02T04:15:38.297Z,99631.81
2018-02-02T04:16:43.407Z,99630.14
2018-02-02T04:17:47.735Z,99635.59
2018-02-02T04:18:51.931Z,99636.39
2018-02-02T04:19:56.153Z,99637.26
2018-02-02T04:21:00.384Z,99639.38
2018-02-02T04:22:06.778Z,99635.98
2018-02-02T04:23:11.837Z,99638.89
2018-02-02T04:24:16.054Z,99641.42
2018-02-02T04:25:20.227Z,99639.33
2018-02-02T04:26:25.294Z,99638.05
2018-02-02T04:27:29.472Z,99637.16
2018-02-02T04:28:33.658Z,99640.57
2018-02-02T04:29:38.646Z,99647.28
2018-02-02T04:30:42.862Z,99640.06
2018-02-02T04:31:47.108Z,99643.03
2018-02-02T04:32:51.290Z,99643.02
2018-02-02T04:33:55.928Z,99649.77
2018-02-02T04:35:00.185Z,99645.53
2018-02-02T04:36:04.372Z,99642.17
2018-02-02T04:37:08.596Z,99649.77
2018-02-02T04:38:12.817Z,99648.05
2018-02-02T04:39:18.088Z,99642.97
2018-02-02T04:40:22.391Z,99648.42
2018-02-02T04:41:26.611Z,99653.91
2018-02-02T04:42:30.853Z,99649.25
2018-02-02T04:43:35.019Z,99649.23
2018-02-02T04:44:39.205Z,99648.38
2018-02-02T04:45:43.447Z,99649.22
2018-02-02T04:46:48.136Z,99648.77
2018-02-02T04:47:52.910Z,99647.91
2018-02-02T04:48:58.155Z,99653.34
2018-02-02T04:50:03.112Z,99650.37
2018-02-02T04:51:07.285Z,99649.98
2018-02-02T04:52:12.242Z,99650.78
2018-02-02T04:53:17.719Z,99648.27
2018-02-02T04:54:22.818Z,99655.44
2018-02-02T04:55:27.221Z,99652.06
2018-02-02T04:56:31.414Z,99648.27
2018-02-02T04:57:36.408Z,99647.00
2018-02-02T04:58:40.607Z,99644.89
2018-02-02T04:59:44.885Z,99645.73
2018-02-02T05:00:49.955Z,99650.37
2018-02-02T05:01:54.176Z,99645.75
2018-02-02T05:02:58.422Z,99645.78
2018-02-02T05:04:03.407Z,99645.38
2018-02-02T05:05:07.636Z,99647.45
2018-02-02T05:06:11.839Z,99647.47
2018-02-02T05:07:16.722Z,99641.97
2018-02-02T05:08:21.157Z,99647.45
2018-02-02T05:09:25.791Z,99646.63
2018-02-02T05:10:30.125Z,99647.03
2018-02-02T05:11:34.306Z,99644.95
2018-02-02T05:12:38.516Z,99649.63
2018-02-02T05:13:42.701Z,99653.45
2018-02-02T05:14:47.182Z,99652.58
2018-02-02T05:15:52.193Z,99659.42
2018-02-02T05:16:56.438Z,99659.42
2018-02-02T05:18:01.479Z,99663.17
2018-02-02T05:19:05.706Z,99656.09
2018-02-02T05:20:09.921Z,99666.22
2018-02-02T05:21:14.159Z,99661.62
2018-02-02T05:22:19.353Z,99667.52
2018-02-02T05:23:23.612Z,99657.39
2018-02-02T05:24:27.842Z,99660.31
2018-02-02T05:25:32.030Z,99660.78
2018-02-02T05:26:36.276Z,99658.69
2018-02-02T05:27:41.225Z,99655.32
2018-02-02T05:28:46.251Z,99660.82
2018-02-02T05:29:50.612Z,99658.75
2018-02-02T05:30:54.873Z,99662.23
2018-02-02T05:31:59.099Z,99659.73
2018-02-02T05:33:03.304Z,99666.08
2018-02-02T05:34:07.483Z,99664.00
2018-02-02T05:35:12.448Z,99660.22
2018-02-02T05:36:16.632Z,99664.44
2018-02-02T05:37:21.957Z,99656.44
2018-02-02T05:38:26.347Z,99665.36
2018-02-02T05:39:30.588Z,99661.59
2018-02-02T05:40:35.559Z,99661.16
2018-02-02T05:41:39.771Z,99670.43
2018-02-02T05:42:43.986Z,99667.89
2018-02-02T05:43:49.321Z,99668.39
2018-02-02T05:44:54.492Z,99672.61
2018-02-02T05:45:59.492Z,99670.55
2018-02-02T05:47:03.665Z,99681.96
2018-02-02T05:48:07.832Z,99673.53
2018-02-02T05:49:12.018Z,99675.65
2018-02-02T05:50:16.524Z,99671.06
2018-02-02T05:51:21.671Z,99679.08
2018-02-02T05:52:25.916Z,99675.36
2018-02-02T05:53:30.195Z,99677.95
2018-02-02T05:54:34.364Z,99677.12
2018-02-02T05:55:39.379Z,99669.50
2018-02-02T05:56:44.316Z,99673.22
2018-02-02T05:57:49.441Z,99672.05
2018-02-02T05:58:53.844Z,99675.02
2018-02-02T05:59:58.801Z,99676.30
2018-02-02T06:01:03.043Z,99672.55
2018-02-02T06:02:07.250Z,99677.22
2018-02-02T06:03:11.414Z,99674.78
2018-02-02T06:04:15.648Z,99678.59
2018-02-02T06:05:20.539Z,99676.42
2018-02-02T06:06:25.610Z,99671.00
2018-02-02T06:07:29.819Z,99674.78
2018-02-02T06:08:34.050Z,99681.56
2018-02-02T06:09:38.220Z,99673.09
2018-02-02T06:10:43.157Z,99677.76
2018-02-02T06:11:48.541Z,99677.33
2018-02-02T06:12:52.851Z,99678.59
2018-02-02T06:13:57.621Z,99679.86
2018-02-02T06:15:02.589Z,99679.47
2018-02-02T06:16:06.778Z,99678.59
2018-02-02T06:17:10.971Z,99679.84
2018-02-02T06:18:16.036Z,99676.48
2018-02-02T06:19:38.107Z,99684.48
2018-02-02T06:20:42.660Z,99678.60
2018-02-02T06:21:47.801Z,99682.83
2018-02-02T06:22:52.042Z,99678.61
2018-02-02T06:23:56.355Z,99678.61
2018-02-02T06:25:00.555Z,99672.34
2018-02-02T06:26:04.795Z,99684.09
2018-02-02T06:27:09.011Z,99680.31
2018-02-02T06:28:13.198Z,99670.63
2018-02-02T06:29:18.138Z,99678.59
2018-02-02T06:30:23.505Z,99679.91
2018-02-02T06:31:28.475Z,99684.53
2018-02-02T06:32:32.674Z,99678.60
2018-02-02T06:33:36.859Z,99677.33
2018-02-02T06:34:41.787Z,99679.87
2018-02-02T06:35:46.927Z,99679.41
2018-02-02T06:36:51.564Z,99681.48
2018-02-02T06:37:55.809Z,99685.33
2018-02-02T06:38:59.994Z,99689.14
2018-02-02T06:40:04.196Z,99685.34
2018-02-02T06:41:08.432Z,99686.55
2018-02-02T06:42:12.604Z,99687.42
2018-02-02T06:43:17.970Z,99688.22
2018-02-02T06:44:22.229Z,99684.08
2018-02-02T06:45:26.441Z,99686.60
2018-02-02T06:46:30.617Z,99689.52
2018-02-02T06:47:34.788Z,99693.73
2018-02-02T06:48:40.241Z,99686.97
2018-02-02T06:49:44.421Z,99690.77
2018-02-02T06:50:50.127Z,99695.84
2018-02-02T06:51:54.396Z,99692.48
2018-02-02T06:52:58.606Z,99697.11
2018-02-02T06:54:03.651Z,99692.91
2018-02-02T06:55:07.859Z,99696.28
2018-02-02T06:56:12.050Z,99697.55
2018-02-02T06:57:17.814Z,99696.66
2018-02-02T06:58:22.071Z,99695.84
2018-02-02T06:59:26.368Z,99700.89
2018-02-02T07:00:30.539Z,99698.36
2018-02-02T07:01:35.494Z,99700.89
2018-02-02T07:02:39.721Z,99697.52
2018-02-02T07:03:43.926Z,99702.17
2018-02-02T07:04:48.375Z,99699.19
2018-02-02T07:05:53.395Z,99696.70
2018-02-02T07:06:57.744Z,99700.45
2018-02-02T07:08:01.951Z,99700.03
2018-02-02T07:09:06.915Z,99705.49
2018-02-02T07:10:11.167Z,99706.78
2018-02-02T07:11:15.618Z,99704.30
2018-02-02T07:12:20.010Z,99711.02
2018-02-02T07:13:24.265Z,99712.70
2018-02-02T07:14:28.600Z,99721.95
2018-02-02T07:15:32.768Z,99718.19
2018-02-02T07:16:36.954Z,99723.26
2018-02-02T07:17:41.914Z,99722.80
2018-02-02T07:18:46.531Z,99725.34
2018-02-02T07:19:51.475Z,99725.73
2018-02-02T07:20:55.733Z,99727.80
2018-02-02T07:22:00.813Z,99729.47
2018-02-02T07:23:05.017Z,99732.83
2018-02-02T07:24:09.299Z,99737.89
2018-02-02T07:25:14.315Z,99736.20
2018-02-02T07:26:19.027Z,99730.73
2018-02-02T07:27:23.730Z,99738.70
2018-02-02T07:28:27.917Z,99740.81
2018-02-02T07:29:32.129Z,99740.41
2018-02-02T07:30:36.342Z,99743.33
2018-02-02T07:31:40.541Z,99745.46
2018-02-02T07:32:44.781Z,99741.16
2018-02-02T07:33:49.099Z,99748.27
2018-02-02T07:34:53.337Z,99747.00
2018-02-02T07:35:57.535Z,99750.35
2018-02-02T07:37:01.751Z,99747.02
2018-02-02T07:38:05.964Z,99752.52
2018-02-02T07:39:10.145Z,99749.98
2018-02-02T07:40:14.422Z,99745.75
2018-02-02T07:41:20.716Z,99755.41
2018-02-02T07:42:24.976Z,99754.12
2018-02-02T07:43:29.220Z,99756.30
2018-02-02T07:44:33.434Z,99757.11
2018-02-02T07:45:37.612Z,99755.84
2018-02-02T07:46:42.592Z,99756.69
2018-02-02T07:47:47.907Z,99763.88
2018-02-02T07:48:52.206Z,99760.89
2018-02-02T07:49:56.456Z,99766.33
2018-02-02T07:51:00.623Z,99764.23
2018-02-02T07:52:05.573Z,99767.16
2018-02-02T07:53:09.826Z,99769.68
2018-02-02T07:54:14.008Z,99774.72
2018-02-02T07:55:18.803Z,99779.33
2018-02-02T07:56:23.023Z,99772.56
2018-02-02T07:57:27.346Z,99773.00
2018-02-02T07:58:31.571Z,99775.55
2018-02-02T07:59:35.789Z,99773.37
2018-02-02T08:00:45.610Z,99770.83
2018-02-02T08:01:51.355Z,99773.75
2018-02-02T08:02:55.679Z,99775.87
2018-02-02T08:03:59.928Z,99779.21
2018-02-02T08:05:04.141Z,99778.33
2018-02-02T08:06:08.339Z,99779.15
2018-02-02T08:07:12.524Z,99782.19
2018-02-02T08:08:17.365Z,99786.36
2018-02-02T08:09:21.752Z,99781.31
2018-02-02T08:10:26.756Z,99782.95
2018-02-02T08:11:30.925Z,99783.75
2018-02-02T08:12:35.150Z,99782.46
2018-02-02T08:13:39.351Z,99791.67
2018-02-02T08:14:43.584Z,99794.17
2018-02-02T08:15:49.482Z,99792.92
2018-02-02T08:16:54.746Z,99797.52
2018-02-02T08:17:58.987Z,99797.45
2018-02-02T08:19:03.172Z,99797.41
2018-02-02T08:20:07.775Z,99807.87
2018-02-02T08:21:11.961Z,99809.41
2018-02-02T08:22:17.415Z,99802.95
2018-02-02T08:23:22.487Z,99810.52
2018-02-02T08:24:26.742Z,99807.23
2018-02-02T08:25:30.991Z,99810.56
2018-02-02T08:26:35.228Z,99810.41
2018-02-02T08:27:39.394Z,99811.64
2018-02-02T08:28:43.573Z,99806.47
2018-02-02T08:29:48.642Z,99814.73
2018-02-02T08:30:52.934Z,99814.25
2018-02-02T08:31:57.167Z,99808.38
2018-02-02T08:33:01.389Z,99804.58
2018-02-02T08:34:05.577Z,99804.73
2018-02-02T08:35:09.882Z,99806.45
2018-02-02T08:36:14.097Z,99805.20
2018-02-02T08:37:18.411Z,99802.64
2018-02-02T08:38:22.662Z,99810.19
2018-02-02T08:39:26.848Z,99814.86
2018-02-02T08:40:31.059Z,99816.61
2018-02-02T08:41:35.250Z,99818.36
2018-02-02T08:42:39.442Z,99822.59
2018-02-02T08:43:44.523Z,99821.71
2018-02-02T08:44:49.331Z,99826.41
2018-02-02T08:45:53.998Z,99823.91
2018-02-02T08:46:59.083Z,99824.72
2018-02-02T08:48:03.295Z,99825.58
2018-02-02T08:49:07.504Z,99826.78
2018-02-02T08:50:11.695Z,99828.86
2018-02-02T08:51:16.110Z,99833.50
2018-02-02T08:52:20.435Z,99833.06
2018-02-02T08:53:24.958Z,99828.01
2018-02-02T08:54:29.187Z,99830.91
2018-02-02T08:55:33.383Z,99831.69
2018-02-02T08:56:37.551Z,99831.56
2018-02-02T08:57:42.524Z,99839.11
2018-02-02T08:58:46.793Z,99838.20
2018-02-02T08:59:51.236Z,99845.80
2018-02-02T09:01:02.044Z,99846.13
2018-02-02T09:02:07.612Z,99851.53
2018-02-02T09:03:11.869Z,99856.13
2018-02-02T09:04:16.172Z,99853.47
2018-02-02T09:05:20.541Z,99857.56
2018-02-02T09:06:25.030Z,99855.74
2018-02-02T09:07:29.254Z,99860.74
2018-02-02T09:08:33.483Z,99861.63
2018-02-02T09:09:37.664Z,99860.77
2018-02-02T09:10:41.826Z,99871.34
2018-02-02T09:11:46.724Z,99864.14
2018-02-02T09:12:51.136Z,99874.25
2018-02-02T09:13:57.269Z,99871.73
2018-02-02T09:15:01.445Z,99873.83
2018-02-02T09:16:05.656Z,99873.02
2018-02-02T09:17:09.902Z,99874.20
2018-02-02T09:18:14.123Z,99873.32
2018-02-02T09:19:18.366Z,99878.70
2018-02-02T09:20:22.603Z,99881.98
2018-02-02T09:21:26.887Z,99881.02
2018-02-02T09:22:31.853Z,99885.69
2018-02-02T09:23:36.014Z,99886.02
2018-02-02T09:24:40.290Z,99890.28
2018-02-02T09:25:44.460Z,99886.45
2018-02-02T09:26:49.063Z,99889.84
2018-02-02T09:27:53.473Z,99892.33
2018-02-02T09:28:57.662Z,99899.91
2018-02-02T09:30:01.850Z,99898.11
2018-02-02T09:31:06.015Z,99901.34
2018-02-02T09:32:10.956Z,99896.17
2018-02-02T09:33:16.009Z,99899.83
2018-02-02T09:34:20.247Z,99902.02
2018-02-02T09:35:24.416Z,99899.59
2018-02-02T09:36:28.605Z,99899.31
2018-02-02T09:37:33.575Z,99900.15
2018-02-02T09:38:37.783Z,99897.98
2018-02-02T09:39:41.956Z,99905.03
2018-02-02T09:40:46.195Z,99910.52
2018-02-02T09:41:50.402Z,99905.30
2018-02-02T09:42:54.748Z,99909.03
2018-02-02T09:43:58.928Z,99906.09
2018-02-02T09:45:03.124Z,99910.69
2018-02-02T09:46:08.145Z,99909.45
2018-02-02T09:47:13.086Z,99909.37
2018-02-02T09:48:17.303Z,99910.25
2018-02-02T09:49:21.505Z,99911.39
2018-02-02T09:50:26.434Z,99915.98
2018-02-02T09:51:31.411Z,99909.99
2018-02-02T09:52:35.603Z,99920.50
2018-02-02T09:53:39.808Z,99915.76
2018-02-02T09:54:44.010Z,99919.03
2018-02-02T09:55:48.201Z,99918.08
2018-02-02T09:56:52.432Z,99915.06
2018-02-02T09:57:56.603Z,99915.23
2018-02-02T09:59:00.801Z,99914.25
2018-02-02T10:00:05.375Z,99924.27
2018-02-02T10:01:09.565Z,99917.86
2018-02-02T10:02:14.547Z,99921.28
2018-02-02T10:03:19.220Z,99927.16
2018-02-02T10:04:23.477Z,99921.11
2018-02-02T10:05:27.702Z,99917.49
2018-02-02T10:06:31.886Z,99917.91
2018-02-02T10:07:36.071Z,99914.97
2018-02-02T10:08:40.230Z,99920.27
2018-02-02T10:09:44.532Z,99923.06
2018-02-02T10:10:49.154Z,99923.78
2018-02-02T10:11:53.360Z,99921.28
2018-02-02T10:12:57.596Z,99924.72
2018-02-02T10:14:01.774Z,99924.26
2018-02-02T10:15:05.991Z,99924.64
2018-02-02T10:16:10.242Z,99927.65
2018-02-02T10:17:15.174Z,99927.64
2018-02-02T10:18:19.421Z,99928.47
2018-02-02T10:19:23.622Z,99932.13
2018-02-02T10:20:27.791Z,99936.42
2018-02-02T10:21:31.990Z,99938.53
2018-02-02T10:22:36.174Z,99939.12
2018-02-02T10:23:40.356Z,99937.81
2018-02-02T10:24:44.547Z,99939.91
2018-02-02T10:25:48.794Z,99943.28
2018-02-02T10:26:53.067Z,99941.22
2018-02-02T10:27:58.031Z,99940.92
2018-02-02T10:29:02.196Z,99944.86
2018-02-02T10:30:06.383Z,99942.55
2018-02-02T10:31:10.586Z,99944.16
2018-02-02T10:32:14.771Z,99951.06
2018-02-02T10:33:19.056Z,99940.40
2018-02-02T10:34:24.018Z,99941.85
2018-02-02T10:35:28.207Z,99949.20
2018-02-02T10:36:32.393Z,99951.55
2018-02-02T10:37:37.323Z,99951.33
2018-02-02T10:38:42.303Z,99945.64
2018-02-02T10:39:47.009Z,99949.79
2018-02-02T10:40:51.187Z,99949.78
2018-02-02T10:41:55.639Z,99950.82
2018-02-02T10:42:59.832Z,99960.70
2018-02-02T10:44:04.063Z,99955.94
2018-02-02T10:45:08.230Z,99949.09
2018-02-02T10:46:13.173Z,99958.34
2018-02-02T10:47:17.377Z,99952.73
2018-02-02T10:48:21.579Z,99954.67
2018-02-02T10:49:26.919Z,99955.87
2018-02-02T10:50:31.853Z,99954.91
2018-02-02T10:51:36.802Z,99958.22
2018-02-02T10:52:41.009Z,99958.21
2018-02-02T10:53:45.187Z,99960.87
2018-02-02T10:54:50.251Z,99960.28
2018-02-02T10:55:54.496Z,99956.41
2018-02-02T10:56:58.660Z,99965.39
2018-02-02T10:58:02.867Z,99958.42
2018-02-02T10:59:07.051Z,99957.47
2018-02-02T11:00:11.615Z,99956.17
2018-02-02T11:01:21.337Z,99958.29
2018-02-02T11:02:31.856Z,99960.25
2018-02-02T11:03:41.494Z,99960.45
2018-02-02T11:04:45.702Z,99961.52
2018-02-02T11:05:49.927Z,99966.83
2018-02-02T11:06:54.884Z,99968.41
2018-02-02T11:07:59.055Z,99963.77
2018-02-02T11:09:03.263Z,99961.70
2018-02-02T11:10:07.447Z,99966.25
2018-02-02T11:11:11.654Z,99964.85
2018-02-02T11:12:15.846Z,99967.66
2018-02-02T11:13:20.059Z,99973.62
2018-02-02T11:14:24.313Z,99970.27
2018-02-02T11:15:28.490Z,99971.83
2018-02-02T11:16:33.007Z,99972.91
2018-02-02T11:17:37.187Z,99973.03
2018-02-02T11:18:42.128Z,99977.25
2018-02-02T11:19:46.348Z,99972.11
2018-02-02T11:20:50.567Z,99968.63
2018-02-02T11:21:54.784Z,99977.36
2018-02-02T11:22:58.961Z,99976.42
2018-02-02T11:24:03.993Z,99976.58
2018-02-02T11:25:08.154Z,99973.89
2018-02-02T11:26:12.354Z,99972.02
2018-02-02T11:27:16.621Z,99968.47
2018-02-02T11:28:21.257Z,99972.95
2018-02-02T11:29:25.468Z,99974.48
2018-02-02T11:30:29.646Z,99968.44
2018-02-02T11:31:34.593Z,99968.34
2018-02-02T11:32:38.758Z,99972.69
2018-02-02T11:33:42.996Z,99975.99
2018-02-02T11:34:48.014Z,99975.50
2018-02-02T11:35:52.333Z,99968.81
2018-02-02T11:36:57.263Z,99964.95
2018-02-02T11:38:01.444Z,99975.81
2018-02-02T11:39:05.693Z,99975.47
2018-02-02T11:40:10.653Z,99981.34
2018-02-02T11:41:14.867Z,99984.02
2018-02-02T11:42:19.427Z,99981.81
2018-02-02T11:43:25.116Z,99975.83
2018-02-02T11:44:29.294Z,99973.91
2018-02-02T11:45:33.471Z,99976.34
2018-02-02T11:46:37.659Z,99980.97
2018-02-02T11:47:41.919Z,99980.89
2018-02-02T11:48:46.306Z,99984.09
2018-02-02T11:49:50.615Z,99985.87
2018-02-02T11:50:54.813Z,99985.20
2018-02-02T11:51:59.023Z,99985.03
2018-02-02T11:53:03.243Z,99981.30
2018-02-02T11:54:07.437Z,99988.94
2018-02-02T11:55:11.683Z,99988.82
2018-02-02T11:56:15.903Z,99987.70
2018-02-02T11:57:20.573Z,99986.86
2018-02-02T11:58:24.872Z,99986.86
2018-02-02T11:59:29.804Z,99991.12
2018-02-02T12:00:34.804Z,99986.47
2018-02-02T12:01:39.045Z,99989.48
2018-02-02T12:02:43.995Z,99986.72
2018-02-02T12:03:48.244Z,99993.58
2018-02-02T12:04:52.499Z,99995.44
2018-02-02T12:05:56.833Z,99992.64
2018-02-02T12:07:01.021Z,100001.20
2018-02-02T12:08:06.034Z,99996.86
2018-02-02T12:09:11.011Z,100001.06
2018-02-02T12:10:15.356Z,100001.81
2018-02-02T12:11:19.586Z,100000.85
2018-02-02T12:12:24.561Z,100001.06
2018-02-02T12:13:28.815Z,100003.56
2018-02-02T12:14:33.797Z,100006.81
2018-02-02T12:15:38.004Z,100009.59
2018-02-02T12:16:42.196Z,100005.52
2018-02-02T12:17:46.593Z,100009.64
2018-02-02T12:18:51.565Z,100008.27
2018-02-02T12:20:00.113Z,100008.98
2018-02-02T12:21:04.978Z,100009.75
2018-02-02T12:22:14.704Z,100013.83
2018-02-02T12:23:24.896Z,100018.07
2018-02-02T12:24:31.071Z,100012.94
2018-02-02T12:27:24.483Z,100009.67
2018-02-02T12:28:34.229Z,100012.00
2018-02-02T12:29:44.782Z,100010.40
2018-02-02T12:30:54.782Z,100012.80
2018-02-02T12:32:11.829Z,100011.83
2018-02-02T12:33:22.755Z,100017.95
2018-02-02T12:34:46.864Z,100012.05
2018-02-02T12:35:56.258Z,100010.95
2018-02-02T12:37:00.510Z,100012.67
2018-02-02T12:38:04.718Z,100014.31
2018-02-02T12:39:09.727Z,100015.62
2018-02-02T12:40:13.928Z,100012.11